Independence Township, Michigan
Current Conditions -  °F | °C
As of 12:53 AM on Friday 31 Oct 2014 (Local Time) from KPTK Reporting Station
Overcast Overcast  
Wind Chill: 42°   Ceiling: 4700
Heat Index: 45°   Visibility: 10mi
Dew Point: 35°   Wind: 6mph
Humidity: 68%   Direction: 230°SW
Pressure: 29.97"   Gusts: NA
Location:  42.7676°N, 83.4033°W
Report Text: KPTK 310453Z 23005KT 10SM OVC047 07/02 A2997 RMK AO2 SLP154 T00720017 401000017
Loading
Personal Weather Stations






























Interactive Weather Map
Tropical Storm Tracking
New forecast layout! Learn more

10-Day Weather Forecast

Advertisements
Track Severe Weather on mobile